Hlavní strana
METAR-TAF:

METAR-TAF

Letiště :

Mezinárodní letiště Oděsa

Oděsa, Ukrajina

zeměpisná šířka: 46-26N, zeměpisná délka: 030-46E, výška: 42 m

Aktuální stav počasí

Zpráva byla vytvořena před 27 minutami, v 08:00 UTC
Západní vítr 2 kt
Teplota 2°C
Vlhkost vzduchu 87%
Tlak 1016 hPa
Viditelnost 10 km a více
Oblačno až skoro zataženo ve výšce 4800 ft

METAR: UKOO 080800Z 27001MPS 9999 BKN048 02/M00 Q1016 R34/090060 NOSIG

Čas: 10:27 (08:27 UTC)

Předpověď počasí

Zpráva byla vytvořena před 3 hodinami a 17 minutami, v 05:10 UTC
Předpověď platná od 08 v 06 UTC do 09 v 06 UTC
Severoseverozápadní vítr 6 kt s nárazy do 16 kt
Viditelnost: 4000 m
Oblačno až skoro zataženo ve výšce 700 ft
Polojasno ve výšce 1500 ft, Cumulonimbus.
kouřmo
Změna
od 08 v 16 UTC do 08 v 17 UTC
Viditelnost: 2100 m
Změna
od 08 v 23 UTC do 08 v 24 UTC
Jižní vítr 6 kt

TAF: UKOO 080510Z 0806/0906 33003G08MPS 4000 BR BKN007 SCT015CB TX07/0812Z TNM00/0806Z BECMG 0816/0817 2100 BECMG 0823/0824 19003MPS

Stav a předpovědi počasí z více než 4 000 letišť (zprávy METAR a TAF).

Červené a žluté tečky na mapě představují dostupné meteorologické stanice.

Když kurzor umístíte na tečku, zobrazí se název stanice.

Pak kliknutím zobrazíte stav a předpověď počasí.

Chcete-li změnit mapu, kliknutím na zelené tlačítko se znaménkem +mapu přiblížíte, kliknutím na zelené tlačítko se znaménkem – mapu oddálíte a kliknutím na zelené šipky přejdete na sousední mapy.


METAR-TAF: